sensor_id;sensor_type;location;lat;lon;timestamp;temperature;humidity
33149;DHT22;19506;51.040;3.856;2023-01-16T15:54:55;16.00;99.90
33149;DHT22;19506;51.040;3.856;2023-01-16T15:57:21;16.40;99.90
33149;DHT22;19506;51.040;3.856;2023-01-16T15:59:54;16.90;99.90
33149;DHT22;19506;51.040;3.856;2023-01-16T16:02:26;17.40;99.90
33149;DHT22;19506;51.040;3.856;2023-01-16T16:04:57;17.70;99.90
33149;DHT22;19506;51.040;3.856;2023-01-16T16:07:24;17.90;99.90
33149;DHT22;19506;51.040;3.856;2023-01-16T16:09:53;18.00;99.90
33149;DHT22;19506;51.040;3.856;2023-01-16T16:12:20;18.00;99.90
33149;DHT22;19506;51.040;3.856;2023-01-16T16:14:47;18.10;99.90
33149;DHT22;19506;51.040;3.856;2023-01-16T16:17:35;18.20;99.90
33149;DHT22;19506;51.040;3.856;2023-01-16T16:23:21;18.40;99.90
33149;DHT22;19506;51.040;3.856;2023-01-16T16:25:50;18.70;99.90
33149;DHT22;19506;51.040;3.856;2023-01-16T16:31:12;18.80;99.90
33149;DHT22;19506;51.040;3.856;2023-01-16T16:33:39;18.90;99.90
33149;DHT22;19506;51.040;3.856;2023-01-16T16:36:06;19.00;99.90
33149;DHT22;19506;51.040;3.856;2023-01-16T16:43:56;19.00;99.90
33149;DHT22;19506;51.040;3.856;2023-01-16T16:51:47;19.00;99.90
33149;DHT22;19506;51.040;3.856;2023-01-16T16:54:15;19.00;99.90
33149;DHT22;19506;51.040;3.856;2023-01-16T16:56:53;19.10;99.90
33149;DHT22;19506;51.040;3.856;2023-01-16T16:59:26;19.30;99.90
33149;DHT22;19506;51.040;3.856;2023-01-16T17:01:57;19.30;99.90
33149;DHT22;19506;51.040;3.856;2023-01-16T17:09:25;19.30;99.90
33149;DHT22;19506;51.040;3.856;2023-01-16T17:16:43;19.30;99.90
33149;DHT22;19506;51.040;3.856;2023-01-16T17:19:18;19.30;99.90
33149;DHT22;19506;51.040;3.856;2023-01-16T17:21:44;19.40;99.90
33149;DHT22;19506;51.040;3.856;2023-01-16T17:31:41;19.30;99.90
33149;DHT22;19506;51.040;3.856;2023-01-16T17:34:16;19.10;99.90
33149;DHT22;19506;51.040;3.856;2023-01-16T17:36:42;19.00;99.90
33149;DHT22;19506;51.040;3.856;2023-01-16T17:39:08;18.90;99.90
33149;DHT22;19506;51.040;3.856;2023-01-16T17:41:37;18.80;99.90
33149;DHT22;19506;51.040;3.856;2023-01-16T17:44:17;18.80;99.90
33149;DHT22;19506;51.040;3.856;2023-01-16T17:47:01;18.80;99.90
33149;DHT22;19506;51.040;3.856;2023-01-16T17:49:27;18.80;99.90
33149;DHT22;19506;51.040;3.856;2023-01-16T17:51:53;18.80;99.90
33149;DHT22;19506;51.040;3.856;2023-01-16T17:54:18;18.80;99.90
33149;DHT22;19506;51.040;3.856;2023-01-16T17:57:03;18.90;99.90
33149;DHT22;19506;51.040;3.856;2023-01-16T17:59:28;19.20;99.90
33149;DHT22;19506;51.040;3.856;2023-01-16T18:01:55;19.40;99.90
33149;DHT22;19506;51.040;3.856;2023-01-16T18:04:21;19.60;99.90
33149;DHT22;19506;51.040;3.856;2023-01-16T18:06:47;19.50;99.90
33149;DHT22;19506;51.040;3.856;2023-01-16T18:09:13;19.20;99.90
33149;DHT22;19506;51.040;3.856;2023-01-16T18:11:42;19.40;99.90
33149;DHT22;19506;51.040;3.856;2023-01-16T18:14:27;19.50;99.90
33149;DHT22;19506;51.040;3.856;2023-01-16T18:17:14;19.60;99.90
33149;DHT22;19506;51.040;3.856;2023-01-16T18:19:53;19.60;99.90
33149;DHT22;19506;51.040;3.856;2023-01-16T18:22:29;19.50;99.90
33149;DHT22;19506;51.040;3.856;2023-01-16T18:24:57;19.50;99.90
33149;DHT22;19506;51.040;3.856;2023-01-16T18:27:23;19.40;99.90
33149;DHT22;19506;51.040;3.856;2023-01-16T18:29:49;19.30;99.90
33149;DHT22;19506;51.040;3.856;2023-01-16T18:32:15;19.30;99.90
33149;DHT22;19506;51.040;3.856;2023-01-16T18:34:45;19.20;99.90
33149;DHT22;19506;51.040;3.856;2023-01-16T18:37:12;19.10;99.90
33149;DHT22;19506;51.040;3.856;2023-01-16T18:39:38;19.10;99.90
33149;DHT22;19506;51.040;3.856;2023-01-16T18:42:22;19.00;99.90
33149;DHT22;19506;51.040;3.856;2023-01-16T18:45:10;18.90;99.90
33149;DHT22;19506;51.040;3.856;2023-01-16T18:47:54;18.80;99.90
33149;DHT22;19506;51.040;3.856;2023-01-16T18:50:39;18.80;99.90
33149;DHT22;19506;51.040;3.856;2023-01-16T18:53:27;18.70;99.90
33149;DHT22;19506;51.040;3.856;2023-01-16T18:56:21;18.60;99.90
33149;DHT22;19506;51.040;3.856;2023-01-16T18:59:16;18.50;99.90
33149;DHT22;19506;51.040;3.856;2023-01-16T19:04:37;18.40;99.90
33149;DHT22;19506;51.040;3.856;2023-01-16T19:07:10;18.40;99.90
33149;DHT22;19506;51.040;3.856;2023-01-16T19:09:41;18.30;99.90
33149;DHT22;19506;51.040;3.856;2023-01-16T19:12:07;18.30;99.90
33149;DHT22;19506;51.040;3.856;2023-01-16T19:14:36;18.30;99.90
33149;DHT22;19506;51.040;3.856;2023-01-16T19:17:03;18.20;99.90
33149;DHT22;19506;51.040;3.856;2023-01-16T19:19:29;18.30;99.90
33149;DHT22;19506;51.040;3.856;2023-01-16T19:21:59;18.50;99.90
33149;DHT22;19506;51.040;3.856;2023-01-16T19:24:25;18.70;99.90
33149;DHT22;19506;51.040;3.856;2023-01-16T19:26:54;18.90;99.90
33149;DHT22;19506;51.040;3.856;2023-01-16T19:29:20;19.00;99.90
33149;DHT22;19506;51.040;3.856;2023-01-16T19:31:47;19.10;99.90
33149;DHT22;19506;51.040;3.856;2023-01-16T19:34:14;19.20;99.90
33149;DHT22;19506;51.040;3.856;2023-01-16T19:36:40;19.20;99.90
33149;DHT22;19506;51.040;3.856;2023-01-16T19:39:07;19.30;99.90
33149;DHT22;19506;51.040;3.856;2023-01-16T19:41:34;19.20;99.90
33149;DHT22;19506;51.040;3.856;2023-01-16T19:44:19;19.20;99.90
33149;DHT22;19506;51.040;3.856;2023-01-16T19:47:04;19.20;99.90
33149;DHT22;19506;51.040;3.856;2023-01-16T19:49:30;19.10;99.90
33149;DHT22;19506;51.040;3.856;2023-01-16T19:51:56;19.10;99.90
33149;DHT22;19506;51.040;3.856;2023-01-16T19:54:22;19.00;99.90
33149;DHT22;19506;51.040;3.856;2023-01-16T19:56:50;19.00;99.90
33149;DHT22;19506;51.040;3.856;2023-01-16T19:59:16;18.90;99.90
33149;DHT22;19506;51.040;3.856;2023-01-16T20:04:29;18.80;99.90
33149;DHT22;19506;51.040;3.856;2023-01-16T20:06:55;18.80;99.90
33149;DHT22;19506;51.040;3.856;2023-01-16T20:09:21;18.70;99.90
33149;DHT22;19506;51.040;3.856;2023-01-16T20:11:47;18.70;99.90
33149;DHT22;19506;51.040;3.856;2023-01-16T20:14:32;18.60;99.90
33149;DHT22;19506;51.040;3.856;2023-01-16T20:16:59;18.60;99.90
33149;DHT22;19506;51.040;3.856;2023-01-16T20:19:25;18.50;99.90
33149;DHT22;19506;51.040;3.856;2023-01-16T20:21:54;18.50;99.90
33149;DHT22;19506;51.040;3.856;2023-01-16T20:24:21;18.40;99.90
33149;DHT22;19506;51.040;3.856;2023-01-16T20:26:48;18.40;99.90
33149;DHT22;19506;51.040;3.856;2023-01-16T20:29:19;18.40;99.90
33149;DHT22;19506;51.040;3.856;2023-01-16T20:31:45;18.30;99.90
33149;DHT22;19506;51.040;3.856;2023-01-16T20:34:11;18.30;99.90
33149;DHT22;19506;51.040;3.856;2023-01-16T20:36:37;18.20;99.90
33149;DHT22;19506;51.040;3.856;2023-01-16T20:39:05;18.20;99.90
33149;DHT22;19506;51.040;3.856;2023-01-16T20:41:31;18.10;99.90
33149;DHT22;19506;51.040;3.856;2023-01-16T20:44:18;18.10;99.90
33149;DHT22;19506;51.040;3.856;2023-01-16T20:47:03;18.00;99.90
33149;DHT22;19506;51.040;3.856;2023-01-16T20:49:29;18.00;99.90
33149;DHT22;19506;51.040;3.856;2023-01-16T20:51:55;18.00;99.90
33149;DHT22;19506;51.040;3.856;2023-01-16T20:54:22;18.00;99.90
33149;DHT22;19506;51.040;3.856;2023-01-16T20:56:49;18.00;99.90
33149;DHT22;19506;51.040;3.856;2023-01-16T20:59:14;17.90;99.90
33149;DHT22;19506;51.040;3.856;2023-01-16T21:01:41;17.90;99.90
33149;DHT22;19506;51.040;3.856;2023-01-16T21:04:06;18.00;99.90
33149;DHT22;19506;51.040;3.856;2023-01-16T21:06:32;18.20;99.90
33149;DHT22;19506;51.040;3.856;2023-01-16T21:08:58;18.50;99.90
33149;DHT22;19506;51.040;3.856;2023-01-16T21:11:24;18.70;99.90
33149;DHT22;19506;51.040;3.856;2023-01-16T21:14:09;18.90;99.90
33149;DHT22;19506;51.040;3.856;2023-01-16T21:16:38;19.00;99.90
33149;DHT22;19506;51.040;3.856;2023-01-16T21:19:23;19.10;99.90
33149;DHT22;19506;51.040;3.856;2023-01-16T21:22:07;19.20;99.90
33149;DHT22;19506;51.040;3.856;2023-01-16T21:24:32;19.20;99.90
33149;DHT22;19506;51.040;3.856;2023-01-16T21:26:58;19.10;99.90
33149;DHT22;19506;51.040;3.856;2023-01-16T21:29:24;19.10;99.90
33149;DHT22;19506;51.040;3.856;2023-01-16T21:31:49;19.00;99.90
33149;DHT22;19506;51.040;3.856;2023-01-16T21:34:15;19.00;99.90
33149;DHT22;19506;51.040;3.856;2023-01-16T21:36:41;19.00;99.90
33149;DHT22;19506;51.040;3.856;2023-01-16T21:39:09;19.00;99.90
33149;DHT22;19506;51.040;3.856;2023-01-16T21:41:36;18.90;99.90
33149;DHT22;19506;51.040;3.856;2023-01-16T21:44:20;18.90;99.90
33149;DHT22;19506;51.040;3.856;2023-01-16T21:47:04;18.90;99.90
33149;DHT22;19506;51.040;3.856;2023-01-16T21:49:30;18.80;99.90
33149;DHT22;19506;51.040;3.856;2023-01-16T21:51:56;18.80;99.90
33149;DHT22;19506;51.040;3.856;2023-01-16T21:54:21;18.70;99.90
33149;DHT22;19506;51.040;3.856;2023-01-16T21:56:47;18.70;99.90
33149;DHT22;19506;51.040;3.856;2023-01-16T21:59:14;18.70;99.90
33149;DHT22;19506;51.040;3.856;2023-01-16T22:01:40;18.60;99.90
33149;DHT22;19506;51.040;3.856;2023-01-16T22:04:05;18.60;99.90
33149;DHT22;19506;51.040;3.856;2023-01-16T22:06:31;18.50;99.90
33149;DHT22;19506;51.040;3.856;2023-01-16T22:08:56;18.50;99.90
33149;DHT22;19506;51.040;3.856;2023-01-16T22:11:22;18.40;99.90
33149;DHT22;19506;51.040;3.856;2023-01-16T22:14:08;18.40;99.90
33149;DHT22;19506;51.040;3.856;2023-01-16T22:16:53;18.30;99.90
33149;DHT22;19506;51.040;3.856;2023-01-16T22:19:37;18.30;99.90
33149;DHT22;19506;51.040;3.856;2023-01-16T22:22:20;18.20;99.90
33149;DHT22;19506;51.040;3.856;2023-01-16T22:24:50;18.20;99.90
33149;DHT22;19506;51.040;3.856;2023-01-16T22:27:18;18.10;99.90
33149;DHT22;19506;51.040;3.856;2023-01-16T22:29:44;18.10;99.90
33149;DHT22;19506;51.040;3.856;2023-01-16T22:32:09;18.10;99.90
33149;DHT22;19506;51.040;3.856;2023-01-16T22:34:35;18.00;99.90
33149;DHT22;19506;51.040;3.856;2023-01-16T22:37:01;18.00;99.90
33149;DHT22;19506;51.040;3.856;2023-01-16T22:39:27;18.00;99.90
33149;DHT22;19506;51.040;3.856;2023-01-16T22:41:52;17.90;99.90
33149;DHT22;19506;51.040;3.856;2023-01-16T22:44:18;17.90;99.90
33149;DHT22;19506;51.040;3.856;2023-01-16T22:47:03;17.90;99.90
33149;DHT22;19506;51.040;3.856;2023-01-16T22:49:32;17.90;99.90
33149;DHT22;19506;51.040;3.856;2023-01-16T22:51:57;17.80;99.90
33149;DHT22;19506;51.040;3.856;2023-01-16T22:54:23;17.80;99.90
33149;DHT22;19506;51.040;3.856;2023-01-16T22:56:49;17.80;99.90
33149;DHT22;19506;51.040;3.856;2023-01-16T22:59:15;17.80;99.90
